sensor_id;sensor_type;location;lat;lon;timestamp;pressure;altitude;pressure_sealevel;temperature;humidity
22389;BME280;11362;48.102;11.620;2023-01-31T00:00:00;95801.75;;;23.00;30.09
22389;BME280;11362;48.102;11.620;2023-01-31T00:02:26;95808.06;;;23.00;30.26
22389;BME280;11362;48.102;11.620;2023-01-31T00:04:51;95814.81;;;22.99;30.14
22389;BME280;11362;48.102;11.620;2023-01-31T00:07:16;95818.38;;;23.00;30.11
22389;BME280;11362;48.102;11.620;2023-01-31T00:09:42;95812.03;;;22.99;30.23
22389;BME280;11362;48.102;11.620;2023-01-31T00:12:07;95816.00;;;22.98;30.06
22389;BME280;11362;48.102;11.620;2023-01-31T00:14:32;95812.44;;;22.98;30.40
22389;BME280;11362;48.102;11.620;2023-01-31T00:16:57;95808.88;;;22.97;30.18
22389;BME280;11362;48.102;11.620;2023-01-31T00:19:23;95806.91;;;22.98;29.94
22389;BME280;11362;48.102;11.620;2023-01-31T00:21:48;95807.69;;;22.98;30.07
22389;BME280;11362;48.102;11.620;2023-01-31T00:24:14;95804.94;;;22.98;30.08
22389;BME280;11362;48.102;11.620;2023-01-31T00:26:39;95804.94;;;22.98;30.06
22389;BME280;11362;48.102;11.620;2023-01-31T00:29:05;95806.91;;;22.98;29.70
22389;BME280;11362;48.102;11.620;2023-01-31T00:31:32;95802.53;;;22.97;29.88
22389;BME280;11362;48.102;11.620;2023-01-31T00:33:58;95802.16;;;22.98;29.98
22389;BME280;11362;48.102;11.620;2023-01-31T00:36:29;95809.66;;;22.98;30.16
22389;BME280;11362;48.102;11.620;2023-01-31T00:38:56;95811.66;;;22.97;30.09
22389;BME280;11362;48.102;11.620;2023-01-31T00:41:24;95810.84;;;22.97;29.95
22389;BME280;11362;48.102;11.620;2023-01-31T00:43:50;95817.19;;;22.97;30.09
22389;BME280;11362;48.102;11.620;2023-01-31T00:46:16;95810.84;;;22.97;30.14
22389;BME280;11362;48.102;11.620;2023-01-31T00:48:42;95816.41;;;22.97;30.06
22389;BME280;11362;48.102;11.620;2023-01-31T00:51:07;95818.41;;;22.96;29.97
22389;BME280;11362;48.102;11.620;2023-01-31T00:53:33;95810.84;;;22.97;30.09
22389;BME280;11362;48.102;11.620;2023-01-31T00:56:10;95819.59;;;22.95;30.12
22389;BME280;11362;48.102;11.620;2023-01-31T00:58:36;95799.78;;;22.97;30.12
22389;BME280;11362;48.102;11.620;2023-01-31T01:01:22;95796.22;;;22.96;30.13
22389;BME280;11362;48.102;11.620;2023-01-31T01:03:48;95797.00;;;22.97;30.02
22389;BME280;11362;48.102;11.620;2023-01-31T01:06:14;95810.09;;;22.96;30.08
22389;BME280;11362;48.102;11.620;2023-01-31T01:08:40;95800.19;;;22.95;30.09
22389;BME280;11362;48.102;11.620;2023-01-31T01:11:10;95799.00;;;22.96;29.92
22389;BME280;11362;48.102;11.620;2023-01-31T01:13:36;95804.53;;;22.96;29.79
22389;BME280;11362;48.102;11.620;2023-01-31T01:16:12;95798.19;;;22.96;29.94
22389;BME280;11362;48.102;11.620;2023-01-31T01:18:38;95802.53;;;22.97;29.96
22389;BME280;11362;48.102;11.620;2023-01-31T01:21:08;95807.31;;;22.96;30.07
22389;BME280;11362;48.102;11.620;2023-01-31T01:23:35;95814.06;;;22.95;30.18
22389;BME280;11362;48.102;11.620;2023-01-31T01:26:00;95810.09;;;22.96;30.07
22389;BME280;11362;48.102;11.620;2023-01-31T01:28:25;95815.63;;;22.96;30.13
22389;BME280;11362;48.102;11.620;2023-01-31T01:30:51;95821.16;;;22.96;29.94
22389;BME280;11362;48.102;11.620;2023-01-31T01:33:16;95826.72;;;22.96;30.13
22389;BME280;11362;48.102;11.620;2023-01-31T01:35:41;95827.47;;;22.97;29.84
22389;BME280;11362;48.102;11.620;2023-01-31T01:38:06;95827.09;;;22.95;30.04
22389;BME280;11362;48.102;11.620;2023-01-31T01:40:36;95825.91;;;22.96;29.98
22389;BME280;11362;48.102;11.620;2023-01-31T01:43:02;95827.47;;;22.97;29.98
22389;BME280;11362;48.102;11.620;2023-01-31T01:45:27;95830.25;;;22.97;29.83
22389;BME280;11362;48.102;11.620;2023-01-31T01:47:55;95830.25;;;22.97;29.98
22389;BME280;11362;48.102;11.620;2023-01-31T01:50:29;95830.25;;;22.97;29.44
22389;BME280;11362;48.102;11.620;2023-01-31T01:55:35;95825.91;;;22.96;30.14
22389;BME280;11362;48.102;11.620;2023-01-31T01:58:23;95825.91;;;22.96;30.08
22389;BME280;11362;48.102;11.620;2023-01-31T02:00:51;95835.78;;;22.97;30.11
22389;BME280;11362;48.102;11.620;2023-01-31T02:03:17;95829.88;;;22.95;30.03
22389;BME280;11362;48.102;11.620;2023-01-31T02:05:54;95845.69;;;22.94;30.07
22389;BME280;11362;48.102;11.620;2023-01-31T02:08:22;95847.28;;;22.95;29.93
22389;BME280;11362;48.102;11.620;2023-01-31T02:10:59;95842.53;;;22.96;30.09
22389;BME280;11362;48.102;11.620;2023-01-31T02:13:26;95833.44;;;22.95;30.02
22389;BME280;11362;48.102;11.620;2023-01-31T02:15:52;95837.00;;;22.96;30.05
22389;BME280;11362;48.102;11.620;2023-01-31T02:18:19;95845.28;;;22.96;29.90
22389;BME280;11362;48.102;11.620;2023-01-31T02:24:25;95854.41;;;22.96;29.81
22389;BME280;11362;48.102;11.620;2023-01-31T02:32:49;95864.69;;;22.96;30.06
22389;BME280;11362;48.102;11.620;2023-01-31T02:35:41;95864.69;;;22.96;30.00
22389;BME280;11362;48.102;11.620;2023-01-31T02:38:29;95857.19;;;22.96;30.53
22389;BME280;11362;48.102;11.620;2023-01-31T02:41:06;95856.38;;;22.96;30.17
22389;BME280;11362;48.102;11.620;2023-01-31T02:44:12;95850.84;;;22.96;29.88
22389;BME280;11362;48.102;11.620;2023-01-31T02:55:04;95857.97;;;22.97;30.01
22389;BME280;11362;48.102;11.620;2023-01-31T02:57:31;95861.53;;;22.94;30.44
22389;BME280;11362;48.102;11.620;2023-01-31T02:59:57;95853.22;;;22.94;30.31
22389;BME280;11362;48.102;11.620;2023-01-31T03:02:23;95860.34;;;22.95;30.09
22389;BME280;11362;48.102;11.620;2023-01-31T03:04:49;95862.31;;;22.94;30.17
22389;BME280;11362;48.102;11.620;2023-01-31T03:07:23;95865.88;;;22.95;30.20
22389;BME280;11362;48.102;11.620;2023-01-31T03:10:26;95869.84;;;22.94;31.20
22389;BME280;11362;48.102;11.620;2023-01-31T03:13:27;95873.41;;;22.94;30.64
22389;BME280;11362;48.102;11.620;2023-01-31T03:16:09;95885.28;;;22.95;30.24
22389;BME280;11362;48.102;11.620;2023-01-31T03:21:32;95863.13;;;22.95;30.43
22389;BME280;11362;48.102;11.620;2023-01-31T03:24:01;95868.66;;;22.95;29.96
22389;BME280;11362;48.102;11.620;2023-01-31T03:26:29;95881.31;;;22.96;30.12
22389;BME280;11362;48.102;11.620;2023-01-31T03:28:56;95883.31;;;22.95;30.64
22389;BME280;11362;48.102;11.620;2023-01-31T03:31:26;95887.66;;;22.96;30.03
22389;BME280;11362;48.102;11.620;2023-01-31T03:33:57;95886.84;;;22.96;30.35
22389;BME280;11362;48.102;11.620;2023-01-31T03:36:56;95897.94;;;22.96;30.54
22389;BME280;11362;48.102;11.620;2023-01-31T03:39:40;95904.28;;;22.96;31.11
22389;BME280;11362;48.102;11.620;2023-01-31T03:42:18;95902.28;;;22.97;30.33
22389;BME280;11362;48.102;11.620;2023-01-31T03:45:05;95901.09;;;22.98;30.82
22389;BME280;11362;48.102;11.620;2023-01-31T03:47:40;95897.94;;;22.96;31.05
22389;BME280;11362;48.102;11.620;2023-01-31T03:50:11;95896.75;;;22.97;30.32
22389;BME280;11362;48.102;11.620;2023-01-31T03:52:43;95889.63;;;22.96;30.66
22389;BME280;11362;48.102;11.620;2023-01-31T03:55:15;95893.97;;;22.97;30.39
22389;BME280;11362;48.102;11.620;2023-01-31T03:57:43;95903.88;;;22.98;30.68
22389;BME280;11362;48.102;11.620;2023-01-31T04:00:13;95891.19;;;22.97;30.40
22389;BME280;11362;48.102;11.620;2023-01-31T04:02:39;95900.31;;;22.97;30.71
22389;BME280;11362;48.102;11.620;2023-01-31T04:05:18;95898.75;;;22.96;30.79
22389;BME280;11362;48.102;11.620;2023-01-31T04:07:45;95912.19;;;22.98;30.97
22389;BME280;11362;48.102;11.620;2023-01-31T04:10:13;95908.63;;;22.97;31.23
22389;BME280;11362;48.102;11.620;2023-01-31T04:12:39;95910.59;;;22.97;30.86
22389;BME280;11362;48.102;11.620;2023-01-31T04:15:05;95918.91;;;22.97;31.07
22389;BME280;11362;48.102;11.620;2023-01-31T04:17:31;95933.56;;;22.97;31.35
22389;BME280;11362;48.102;11.620;2023-01-31T04:19:56;95938.31;;;22.97;31.49
22389;BME280;11362;48.102;11.620;2023-01-31T04:22:21;95933.56;;;22.97;30.87
22389;BME280;11362;48.102;11.620;2023-01-31T04:24:46;95933.56;;;22.97;31.09
22389;BME280;11362;48.102;11.620;2023-01-31T04:27:12;95934.34;;;22.98;31.26
22389;BME280;11362;48.102;11.620;2023-01-31T04:29:37;95935.53;;;22.97;31.18
22389;BME280;11362;48.102;11.620;2023-01-31T04:32:02;95928.81;;;22.98;31.16
22389;BME280;11362;48.102;11.620;2023-01-31T04:34:28;95932.75;;;22.97;31.44
22389;BME280;11362;48.102;11.620;2023-01-31T04:36:53;95930.00;;;22.97;31.42
22389;BME280;11362;48.102;11.620;2023-01-31T04:39:18;95942.25;;;22.96;31.74
22389;BME280;11362;48.102;11.620;2023-01-31T04:41:43;95935.94;;;22.95;31.56
22389;BME280;11362;48.102;11.620;2023-01-31T04:44:09;95942.25;;;22.96;31.12
22389;BME280;11362;48.102;11.620;2023-01-31T04:46:34;95953.34;;;22.96;30.62
22389;BME280;11362;48.102;11.620;2023-01-31T04:48:59;95953.34;;;22.96;31.03
22389;BME280;11362;48.102;11.620;2023-01-31T04:51:25;95945.44;;;22.94;30.90
22389;BME280;11362;48.102;11.620;2023-01-31T04:53:50;95947.81;;;22.96;31.76
22389;BME280;11362;48.102;11.620;2023-01-31T04:56:15;95951.78;;;22.95;31.17
22389;BME280;11362;48.102;11.620;2023-01-31T04:58:40;95959.69;;;22.96;31.66
22389;BME280;11362;48.102;11.620;2023-01-31T05:01:06;95970.78;;;22.96;31.27
22389;BME280;11362;48.102;11.620;2023-01-31T05:03:32;95964.44;;;22.96;31.01
22389;BME280;11362;48.102;11.620;2023-01-31T05:05:57;95975.50;;;22.96;31.18
22389;BME280;11362;48.102;11.620;2023-01-31T05:08:22;95968.41;;;22.95;31.73
22389;BME280;11362;48.102;11.620;2023-01-31T05:10:47;95977.09;;;22.97;31.32
22389;BME280;11362;48.102;11.620;2023-01-31T05:13:13;95977.09;;;22.97;31.53
22389;BME280;11362;48.102;11.620;2023-01-31T05:15:38;95972.34;;;22.97;31.45
22389;BME280;11362;48.102;11.620;2023-01-31T05:18:04;95977.91;;;22.97;31.74
22389;BME280;11362;48.102;11.620;2023-01-31T05:20:31;95984.22;;;22.98;31.41
22389;BME280;11362;48.102;11.620;2023-01-31T05:22:57;95986.22;;;22.97;31.09
22389;BME280;11362;48.102;11.620;2023-01-31T05:25:23;95981.84;;;22.96;31.44
22389;BME280;11362;48.102;11.620;2023-01-31T05:27:48;95994.91;;;22.96;30.90
22389;BME280;11362;48.102;11.620;2023-01-31T05:30:14;95989.38;;;22.96;31.85
22389;BME280;11362;48.102;11.620;2023-01-31T05:32:39;95985.81;;;22.95;30.82
22389;BME280;11362;48.102;11.620;2023-01-31T05:35:05;95984.63;;;22.96;30.47
22389;BME280;11362;48.102;11.620;2023-01-31T05:37:30;95986.59;;;22.96;30.34
22389;BME280;11362;48.102;11.620;2023-01-31T05:39:55;95985.00;;;22.95;30.25
22389;BME280;11362;48.102;11.620;2023-01-31T05:42:20;95985.00;;;22.95;29.81
22389;BME280;11362;48.102;11.620;2023-01-31T05:44:46;95985.00;;;22.95;29.66
22389;BME280;11362;48.102;11.620;2023-01-31T05:47:11;95985.81;;;22.95;30.57
22389;BME280;11362;48.102;11.620;2023-01-31T05:49:36;95997.69;;;22.96;30.60
22389;BME280;11362;48.102;11.620;2023-01-31T05:52:01;95996.09;;;22.95;30.44
22389;BME280;11362;48.102;11.620;2023-01-31T05:54:27;96001.63;;;22.95;30.44
22389;BME280;11362;48.102;11.620;2023-01-31T05:56:52;95997.69;;;22.96;31.39
22389;BME280;11362;48.102;11.620;2023-01-31T05:59:17;95998.88;;;22.95;30.67
22389;BME280;11362;48.102;11.620;2023-01-31T06:01:43;96008.75;;;22.96;30.47
22389;BME280;11362;48.102;11.620;2023-01-31T06:04:09;96014.31;;;22.96;30.50
22389;BME280;11362;48.102;11.620;2023-01-31T06:06:34;96007.19;;;22.95;31.75
22389;BME280;11362;48.102;11.620;2023-01-31T06:08:59;96000.44;;;22.96;31.39
22389;BME280;11362;48.102;11.620;2023-01-31T06:11:25;95999.25;;;22.97;30.37
22389;BME280;11362;48.102;11.620;2023-01-31T06:13:50;96000.06;;;22.97;30.86
22389;BME280;11362;48.102;11.620;2023-01-31T06:16:15;96005.59;;;22.94;30.91
22389;BME280;11362;48.102;11.620;2023-01-31T06:18:40;95998.06;;;22.94;30.63
22389;BME280;11362;48.102;11.620;2023-01-31T06:21:06;95996.91;;;22.95;30.93
22389;BME280;11362;48.102;11.620;2023-01-31T06:23:31;95988.97;;;22.94;30.25
22389;BME280;11362;48.102;11.620;2023-01-31T06:25:56;95988.16;;;22.93;30.87
22389;BME280;11362;48.102;11.620;2023-01-31T06:28:22;95981.06;;;22.92;31.03
22389;BME280;11362;48.102;11.620;2023-01-31T06:30:47;95987.41;;;22.93;30.49
22389;BME280;11362;48.102;11.620;2023-01-31T06:33:13;95992.94;;;22.93;30.46
22389;BME280;11362;48.102;11.620;2023-01-31T06:35:38;95990.16;;;22.93;30.07
22389;BME280;11362;48.102;11.620;2023-01-31T06:38:04;95994.53;;;22.94;30.39
22389;BME280;11362;48.102;11.620;2023-01-31T06:40:30;95997.28;;;22.94;30.54
22389;BME280;11362;48.102;11.620;2023-01-31T06:42:56;96005.59;;;22.94;31.21
22389;BME280;11362;48.102;11.620;2023-01-31T06:45:22;96019.84;;;22.96;31.29
22389;BME280;11362;48.102;11.620;2023-01-31T06:47:47;96007.56;;;22.97;32.07
22389;BME280;11362;48.102;11.620;2023-01-31T06:50:12;96009.56;;;23.00;31.20
22389;BME280;11362;48.102;11.620;2023-01-31T06:52:38;96010.75;;;22.99;31.12
22389;BME280;11362;48.102;11.620;2023-01-31T06:55:04;96008.75;;;22.99;32.02
22389;BME280;11362;48.102;11.620;2023-01-31T06:57:30;96012.72;;;23.02;31.35
22389;BME280;11362;48.102;11.620;2023-01-31T06:59:55;96016.69;;;23.04;31.34
22389;BME280;11362;48.102;11.620;2023-01-31T07:02:20;96025.38;;;23.03;31.94
22389;BME280;11362;48.102;11.620;2023-01-31T07:04:46;96036.88;;;23.05;31.94
22389;BME280;11362;48.102;11.620;2023-01-31T07:07:11;96036.88;;;23.05;31.67
22389;BME280;11362;48.102;11.620;2023-01-31T07:09:36;96045.59;;;23.07;31.76
22389;BME280;11362;48.102;11.620;2023-01-31T07:12:02;96048.38;;;23.07;31.95
22389;BME280;11362;48.102;11.620;2023-01-31T07:14:27;96046.78;;;23.09;31.95
22389;BME280;11362;48.102;11.620;2023-01-31T07:16:52;96036.47;;;23.10;32.29
22389;BME280;11362;48.102;11.620;2023-01-31T07:19:18;96042.03;;;23.10;32.06
22389;BME280;11362;48.102;11.620;2023-01-31T07:21:43;96030.56;;;23.11;31.62
22389;BME280;11362;48.102;11.620;2023-01-31T07:24:08;96026.59;;;23.12;31.64
22389;BME280;11362;48.102;11.620;2023-01-31T07:26:34;96029.34;;;23.12;32.82
22389;BME280;11362;48.102;11.620;2023-01-31T07:28:59;96031.31;;;23.12;32.65
22389;BME280;11362;48.102;11.620;2023-01-31T07:31:24;96031.75;;;23.10;32.20
22389;BME280;11362;48.102;11.620;2023-01-31T07:33:50;96032.50;;;23.11;32.90
22389;BME280;11362;48.102;11.620;2023-01-31T07:36:15;96026.19;;;23.10;32.28
22389;BME280;11362;48.102;11.620;2023-01-31T07:38:41;96026.19;;;23.10;32.85
22389;BME280;11362;48.102;11.620;2023-01-31T07:41:07;96020.66;;;23.10;32.95
22389;BME280;11362;48.102;11.620;2023-01-31T07:43:34;96027.78;;;23.11;32.62
22389;BME280;11362;48.102;11.620;2023-01-31T07:45:59;96023.00;;;23.12;32.72
22389;BME280;11362;48.102;11.620;2023-01-31T07:48:24;96021.03;;;23.12;32.94
22389;BME280;11362;48.102;11.620;2023-01-31T07:50:51;96025.81;;;23.15;32.78
22389;BME280;11362;48.102;11.620;2023-01-31T07:53:17;96027.81;;;23.18;33.35
22389;BME280;11362;48.102;11.620;2023-01-31T07:55:43;96032.16;;;23.23;32.90
22389;BME280;11362;48.102;11.620;2023-01-31T07:58:08;96021.84;;;23.27;33.28
22389;BME280;11362;48.102;11.620;2023-01-31T08:00:34;96030.16;;;23.30;33.71
22389;BME280;11362;48.102;11.620;2023-01-31T08:02:59;96035.31;;;23.32;33.29
22389;BME280;11362;48.102;11.620;2023-01-31T08:05:24;96030.97;;;23.34;33.25
22389;BME280;11362;48.102;11.620;2023-01-31T08:07:49;96043.63;;;23.38;33.63
22389;BME280;11362;48.102;11.620;2023-01-31T08:10:15;96032.91;;;23.40;33.38
22389;BME280;11362;48.102;11.620;2023-01-31T08:12:40;96038.88;;;23.42;33.66
22389;BME280;11362;48.102;11.620;2023-01-31T08:15:06;96028.19;;;23.44;33.60
22389;BME280;11362;48.102;11.620;2023-01-31T08:17:31;96034.13;;;23.46;35.21
22389;BME280;11362;48.102;11.620;2023-01-31T08:19:57;96023.03;;;23.46;35.14
22389;BME280;11362;48.102;11.620;2023-01-31T08:22:22;96027.38;;;23.51;35.14
22389;BME280;11362;48.102;11.620;2023-01-31T08:24:47;96019.03;;;23.51;33.78
22389;BME280;11362;48.102;11.620;2023-01-31T08:27:12;96032.91;;;23.47;34.50
22389;BME280;11362;48.102;11.620;2023-01-31T08:29:38;96035.69;;;23.51;34.37
22389;BME280;11362;48.102;11.620;2023-01-31T08:32:03;96009.16;;;23.53;33.99
22389;BME280;11362;48.102;11.620;2023-01-31T08:34:28;96016.69;;;23.56;33.61
22389;BME280;11362;48.102;11.620;2023-01-31T08:36:54;96009.94;;;23.57;33.99
22389;BME280;11362;48.102;11.620;2023-01-31T08:39:19;96019.03;;;23.58;33.51
22389;BME280;11362;48.102;11.620;2023-01-31T08:41:44;96047.56;;;23.58;33.96
22389;BME280;11362;48.102;11.620;2023-01-31T08:44:10;96049.16;;;23.59;33.98
22389;BME280;11362;48.102;11.620;2023-01-31T08:46:36;96039.66;;;23.57;33.75
22389;BME280;11362;48.102;11.620;2023-01-31T08:49:03;96042.81;;;23.59;33.05
22389;BME280;11362;48.102;11.620;2023-01-31T08:51:29;96055.50;;;23.60;33.68
22389;BME280;11362;48.102;11.620;2023-01-31T08:53:54;96056.66;;;23.62;33.77
22389;BME280;11362;48.102;11.620;2023-01-31T08:56:19;96067.75;;;23.62;32.74
22389;BME280;11362;48.102;11.620;2023-01-31T08:58:45;96041.22;;;23.61;33.18
22389;BME280;11362;48.102;11.620;2023-01-31T09:01:12;96043.59;;;23.63;32.77
22389;BME280;11362;48.102;11.620;2023-01-31T09:03:39;96039.63;;;23.64;33.31
22389;BME280;11362;48.102;11.620;2023-01-31T09:06:07;96030.94;;;23.65;33.15
22389;BME280;11362;48.102;11.620;2023-01-31T09:08:33;96048.34;;;23.69;33.29
22389;BME280;11362;48.102;11.620;2023-01-31T09:10:58;96034.88;;;23.71;33.60
22389;BME280;11362;48.102;11.620;2023-01-31T09:13:24;96040.00;;;23.73;33.79
22389;BME280;11362;48.102;11.620;2023-01-31T09:15:59;96032.50;;;23.73;33.75
22389;BME280;11362;48.102;11.620;2023-01-31T09:18:25;96034.06;;;23.74;33.15
22389;BME280;11362;48.102;11.620;2023-01-31T09:20:50;96030.50;;;23.77;33.24
22389;BME280;11362;48.102;11.620;2023-01-31T09:23:16;95996.78;;;23.79;33.14
22389;BME280;11362;48.102;11.620;2023-01-31T09:25:41;96000.78;;;23.74;33.31
22389;BME280;11362;48.102;11.620;2023-01-31T09:28:06;95999.19;;;23.73;33.50
22389;BME280;11362;48.102;11.620;2023-01-31T09:30:31;96004.75;;;23.73;32.54
22389;BME280;11362;48.102;11.620;2023-01-31T09:32:58;95999.59;;;23.68;32.78
22389;BME280;11362;48.102;11.620;2023-01-31T09:35:24;96028.53;;;23.67;32.65
22389;BME280;11362;48.102;11.620;2023-01-31T09:37:49;96032.88;;;23.68;32.73
22389;BME280;11362;48.102;11.620;2023-01-31T09:40:20;96044.78;;;23.69;32.47
22389;BME280;11362;48.102;11.620;2023-01-31T09:42:46;96047.56;;;23.69;32.73
22389;BME280;11362;48.102;11.620;2023-01-31T09:45:30;96050.72;;;23.64;33.17
22389;BME280;11362;48.102;11.620;2023-01-31T09:47:58;96044.41;;;23.63;33.35
22389;BME280;11362;48.102;11.620;2023-01-31T09:50:36;96052.31;;;23.61;33.66
22389;BME280;11362;48.102;11.620;2023-01-31T09:53:05;96045.19;;;23.60;32.90
22389;BME280;11362;48.102;11.620;2023-01-31T09:55:42;96049.16;;;23.59;33.04
22389;BME280;11362;48.102;11.620;2023-01-31T10:03:47;96060.25;;;23.66;33.05
22389;BME280;11362;48.102;11.620;2023-01-31T10:06:20;96063.41;;;23.72;34.09
22389;BME280;11362;48.102;11.620;2023-01-31T10:11:44;96045.16;;;23.81;34.36
22389;BME280;11362;48.102;11.620;2023-01-31T10:14:20;96041.59;;;23.84;33.62
22389;BME280;11362;48.102;11.620;2023-01-31T10:16:57;96043.19;;;23.82;34.19
22389;BME280;11362;48.102;11.620;2023-01-31T10:19:28;96038.03;;;23.73;34.34
22389;BME280;11362;48.102;11.620;2023-01-31T10:22:01;96024.97;;;23.70;34.16
22389;BME280;11362;48.102;11.620;2023-01-31T10:24:36;96012.69;;;23.71;33.58
22389;BME280;11362;48.102;11.620;2023-01-31T10:27:10;96011.88;;;23.71;33.63
22389;BME280;11362;48.102;11.620;2023-01-31T10:29:40;96001.59;;;23.68;33.40
22389;BME280;11362;48.102;11.620;2023-01-31T10:32:21;95994.06;;;23.65;33.34
22389;BME280;11362;48.102;11.620;2023-01-31T10:34:52;96006.34;;;23.67;33.36
22389;BME280;11362;48.102;11.620;2023-01-31T10:37:34;95997.63;;;23.65;33.51
22389;BME280;11362;48.102;11.620;2023-01-31T10:40:05;95996.84;;;23.65;33.46
22389;BME280;11362;48.102;11.620;2023-01-31T10:42:37;96008.34;;;23.63;33.41
22389;BME280;11362;48.102;11.620;2023-01-31T10:47:48;95996.06;;;23.61;33.68
22389;BME280;11362;48.102;11.620;2023-01-31T10:50:16;95997.66;;;23.58;34.04
22389;BME280;11362;48.102;11.620;2023-01-31T10:53:07;95978.63;;;23.57;33.07
22389;BME280;11362;48.102;11.620;2023-01-31T10:58:21;95972.31;;;23.53;32.72
22389;BME280;11362;48.102;11.620;2023-01-31T11:00:47;95965.19;;;23.52;33.21
22389;BME280;11362;48.102;11.620;2023-01-31T11:03:13;95957.25;;;23.50;32.51
22389;BME280;11362;48.102;11.620;2023-01-31T11:05:48;95966.78;;;23.49;32.15
22389;BME280;11362;48.102;11.620;2023-01-31T11:08:32;95959.66;;;23.48;31.87
22389;BME280;11362;48.102;11.620;2023-01-31T11:11:05;95952.50;;;23.47;31.75
22389;BME280;11362;48.102;11.620;2023-01-31T11:13:31;95930.31;;;23.47;31.49
22389;BME280;11362;48.102;11.620;2023-01-31T11:15:56;95945.81;;;23.45;32.24
22389;BME280;11362;48.102;11.620;2023-01-31T11:18:28;95966.00;;;23.45;32.18
22389;BME280;11362;48.102;11.620;2023-01-31T11:20:57;95954.91;;;23.45;32.06
22389;BME280;11362;48.102;11.620;2023-01-31T11:23:25;95957.28;;;23.47;32.33
22389;BME280;11362;48.102;11.620;2023-01-31T11:25:53;95941.41;;;23.47;32.14
22389;BME280;11362;48.102;11.620;2023-01-31T11:28:27;95944.59;;;23.46;31.99
22389;BME280;11362;48.102;11.620;2023-01-31T11:30:58;95940.25;;;23.45;32.93
22389;BME280;11362;48.102;11.620;2023-01-31T11:33:59;95937.88;;;23.43;32.54
22389;BME280;11362;48.102;11.620;2023-01-31T11:36:30;95923.22;;;23.43;32.15
22389;BME280;11362;48.102;11.620;2023-01-31T11:38:56;95914.13;;;23.42;31.77
22389;BME280;11362;48.102;11.620;2023-01-31T11:41:35;95908.97;;;23.41;31.71
22389;BME280;11362;48.102;11.620;2023-01-31T11:44:15;95907.00;;;23.42;31.71
22389;BME280;11362;48.102;11.620;2023-01-31T11:47:03;95881.25;;;23.41;31.49
22389;BME280;11362;48.102;11.620;2023-01-31T11:52:02;95843.22;;;23.42;32.97
22389;BME280;11362;48.102;11.620;2023-01-31T11:54:35;95838.47;;;23.42;32.14
22389;BME280;11362;48.102;11.620;2023-01-31T11:57:00;95914.50;;;23.41;33.08
22389;BME280;11362;48.102;11.620;2023-01-31T11:59:28;95872.91;;;23.41;32.45
22389;BME280;11362;48.102;11.620;2023-01-31T12:01:56;95852.72;;;23.37;31.88
22389;BME280;11362;48.102;11.620;2023-01-31T12:04:30;95867.00;;;23.36;32.30
22389;BME280;11362;48.102;11.620;2023-01-31T12:09:26;95871.34;;;23.37;32.49
22389;BME280;11362;48.102;11.620;2023-01-31T12:12:01;95864.22;;;23.39;32.45
22389;BME280;11362;48.102;11.620;2023-01-31T12:14:37;95859.88;;;23.42;33.32
22389;BME280;11362;48.102;11.620;2023-01-31T12:17:03;95852.31;;;23.42;32.95
22389;BME280;11362;48.102;11.620;2023-01-31T12:22:31;95841.22;;;23.45;33.46
22389;BME280;11362;48.102;11.620;2023-01-31T12:25:25;95804.38;;;23.48;33.50
22389;BME280;11362;48.102;11.620;2023-01-31T12:28:16;95809.91;;;23.48;33.64
22389;BME280;11362;48.102;11.620;2023-01-31T12:31:03;95811.50;;;23.49;34.19
22389;BME280;11362;48.102;11.620;2023-01-31T12:33:39;95823.78;;;23.48;34.39
22389;BME280;11362;48.102;11.620;2023-01-31T12:36:30;95832.09;;;23.48;34.20
22389;BME280;11362;48.102;11.620;2023-01-31T12:44:50;95818.63;;;23.50;35.01
22389;BME280;11362;48.102;11.620;2023-01-31T12:52:53;95799.59;;;23.52;35.23
22389;BME280;11362;48.102;11.620;2023-01-31T12:55:46;95806.72;;;23.53;34.82
22389;BME280;11362;48.102;11.620;2023-01-31T12:58:37;95806.34;;;23.51;35.68
22389;BME280;11362;48.102;11.620;2023-01-31T13:01:14;95826.53;;;23.52;35.10
22389;BME280;11362;48.102;11.620;2023-01-31T13:04:18;95830.88;;;23.56;35.06
22389;BME280;11362;48.102;11.620;2023-01-31T13:06:37;95813.78;;;23.61;35.19
22389;BME280;11362;48.102;11.620;2023-01-31T13:09:15;95801.13;;;23.60;35.88
22389;BME280;11362;48.102;11.620;2023-01-31T13:11:46;95799.94;;;23.61;35.73
22389;BME280;11362;48.102;11.620;2023-01-31T13:14:33;95797.56;;;23.63;35.80
22389;BME280;11362;48.102;11.620;2023-01-31T13:17:03;95787.63;;;23.62;35.32
22389;BME280;11362;48.102;11.620;2023-01-31T13:22:14;95770.94;;;23.69;35.34
22389;BME280;11362;48.102;11.620;2023-01-31T13:24:43;95769.38;;;23.68;35.58
22389;BME280;11362;48.102;11.620;2023-01-31T13:27:18;95766.22;;;23.66;35.37
22389;BME280;11362;48.102;11.620;2023-01-31T13:29:55;95773.72;;;23.73;35.66
22389;BME280;11362;48.102;11.620;2023-01-31T13:32:28;95765.38;;;23.76;35.62
22389;BME280;11362;48.102;11.620;2023-01-31T13:35:15;95759.47;;;23.71;35.59
22389;BME280;11362;48.102;11.620;2023-01-31T13:37:43;95774.13;;;23.71;35.79
22389;BME280;11362;48.102;11.620;2023-01-31T13:40:21;95761.47;;;23.70;36.21
22389;BME280;11362;48.102;11.620;2023-01-31T13:42:48;95728.19;;;23.70;36.11
22389;BME280;11362;48.102;11.620;2023-01-31T13:45:22;95727.38;;;23.70;36.68
22389;BME280;11362;48.102;11.620;2023-01-31T13:47:53;95730.94;;;23.70;37.21
22389;BME280;11362;48.102;11.620;2023-01-31T13:50:45;95729.75;;;23.71;37.01
22389;BME280;11362;48.102;11.620;2023-01-31T13:53:16;95755.91;;;23.70;37.14
22389;BME280;11362;48.102;11.620;2023-01-31T13:55:46;95755.91;;;23.70;37.49
22389;BME280;11362;48.102;11.620;2023-01-31T13:58:19;95751.13;;;23.71;37.36
22389;BME280;11362;48.102;11.620;2023-01-31T14:00:48;95753.91;;;23.71;37.70